Terminal Aerodrome Forecast
Issued by NWS Albany, NY

Home | Current Version | Previous Version | Text Only | Print | Product List | Glossary On
Versions: 1 2 3 4 5 6 7 8 9 10 11 12 13 14 15 16 17 18 19 20 21 22 23
000
FTUS41 KALY 220802 AAA
TAFPOU
TAF AMD
KPOU 220802Z 2208/2306 00000KT 4SM BR OVC004
      TEMPO 2208/2212 1SM BR VV002
     FM221400 00000KT 2SM BR OVC015
     FM221600 01003KT 4SM BR OVC015=

USA.gov is the U.S. government's official web portal to all federal, state and local government web resources and services.